createdAt,value
2023-05-09T00:01:23.374Z,28.00
2023-05-09T00:03:54.751Z,28.00
2023-05-09T00:06:24.155Z,28.10
2023-05-09T00:08:53.417Z,28.10
2023-05-09T00:11:23.278Z,28.20
2023-05-09T00:13:53.107Z,28.20
2023-05-09T00:16:24.912Z,28.20
2023-05-09T00:18:54.217Z,28.30
2023-05-09T00:21:30.038Z,28.30
2023-05-09T00:24:00.074Z,28.30
2023-05-09T00:26:29.948Z,28.40
2023-05-09T00:28:59.405Z,28.40
2023-05-09T00:31:29.592Z,28.40
2023-05-09T00:33:58.887Z,28.40
2023-05-09T00:36:28.360Z,28.50
2023-05-09T00:38:58.148Z,28.50
2023-05-09T00:41:27.371Z,28.50
2023-05-09T00:43:57.449Z,28.60
2023-05-09T00:46:27.008Z,28.60
2023-05-09T00:48:58.146Z,28.70
2023-05-09T00:54:13.099Z,28.80
2023-05-09T00:56:42.368Z,28.90
2023-05-09T00:59:14.232Z,28.90
2023-05-09T01:01:48.257Z,28.90
2023-05-09T01:04:18.435Z,29.00
2023-05-09T01:08:02.255Z,29.10
2023-05-09T01:10:59.610Z,29.20
2023-05-09T01:14:07.204Z,29.30
2023-05-09T01:17:25.050Z,29.40
2023-05-09T01:20:15.236Z,29.50
2023-05-09T01:23:19.666Z,29.60
2023-05-09T01:26:04.122Z,29.70
2023-05-09T01:29:02.840Z,29.70
2023-05-09T01:31:39.676Z,29.80
2023-05-09T01:34:12.572Z,29.80
2023-05-09T01:36:44.584Z,29.90
2023-05-09T01:39:16.433Z,30.00
2023-05-09T01:41:47.108Z,30.00
2023-05-09T01:44:18.514Z,30.10
2023-05-09T01:46:49.202Z,30.10
2023-05-09T01:49:24.370Z,30.20
2023-05-09T01:51:58.521Z,30.20
2023-05-09T01:54:30.307Z,30.30
2023-05-09T01:57:02.057Z,30.30
2023-05-09T01:59:34.766Z,30.30
2023-05-09T02:02:07.368Z,30.40
2023-05-09T02:04:38.348Z,30.50
2023-05-09T02:07:09.233Z,30.50
2023-05-09T02:09:40.266Z,30.60
2023-05-09T02:12:10.997Z,30.60
2023-05-09T02:14:40.212Z,30.60
2023-05-09T02:17:11.760Z,30.70
2023-05-09T02:19:40.897Z,30.80
2023-05-09T02:22:10.545Z,30.90
2023-05-09T02:24:41.555Z,30.90
2023-05-09T02:27:13.423Z,31.00
2023-05-09T02:29:57.609Z,31.00
2023-05-09T02:32:33.350Z,31.10
2023-05-09T02:35:12.120Z,31.10
2023-05-09T02:37:49.397Z,31.20
2023-05-09T02:43:10.920Z,31.20
2023-05-09T02:45:41.173Z,31.30
2023-05-09T02:48:10.732Z,31.30
2023-05-09T02:50:40.537Z,31.30
2023-05-09T02:53:10.107Z,31.30
2023-05-09T02:55:39.489Z,31.40
2023-05-09T02:58:14.051Z,31.40
2023-05-09T03:00:45.047Z,31.50
2023-05-09T03:03:14.703Z,31.60
2023-05-09T03:05:44.381Z,31.70
2023-05-09T03:08:13.683Z,31.80
2023-05-09T03:10:42.974Z,31.90
2023-05-09T03:13:15.199Z,32.00
2023-05-09T03:15:44.502Z,32.00
2023-05-09T03:18:14.108Z,32.10
2023-05-09T03:20:43.400Z,32.10
2023-05-09T03:23:15.431Z,32.20
2023-05-09T03:25:44.680Z,32.30
2023-05-09T03:28:13.977Z,32.40
2023-05-09T03:30:44.167Z,32.50
2023-05-09T03:33:14.741Z,32.60
2023-05-09T03:35:44.143Z,32.70
2023-05-09T03:38:13.475Z,32.70
2023-05-09T03:40:42.832Z,32.70
2023-05-09T03:43:12.083Z,32.80
2023-05-09T03:45:41.453Z,32.90
2023-05-09T03:48:12.255Z,32.90
2023-05-09T03:50:41.938Z,33.00
2023-05-09T03:53:20.132Z,33.00
2023-05-09T03:58:32.345Z,33.30
2023-05-09T04:01:01.711Z,33.40
2023-05-09T04:03:31.317Z,33.50
2023-05-09T04:06:00.754Z,33.60
2023-05-09T04:08:30.237Z,33.70
2023-05-09T04:10:59.620Z,33.70
2023-05-09T04:13:30.860Z,33.80
2023-05-09T04:16:03.916Z,33.80
2023-05-09T04:18:34.510Z,33.80
2023-05-09T04:21:04.310Z,33.90
2023-05-09T04:23:33.611Z,33.90
2023-05-09T04:26:03.080Z,34.10
2023-05-09T04:28:35.537Z,34.30
2023-05-09T04:31:05.130Z,34.40
2023-05-09T04:33:35.681Z,34.60
2023-05-09T04:36:05.109Z,34.80
2023-05-09T04:38:34.334Z,35.00
2023-05-09T04:41:03.633Z,35.10
2023-05-09T04:43:33.537Z,35.20
2023-05-09T04:46:06.021Z,35.30
2023-05-09T04:48:36.670Z,35.50
2023-05-09T04:51:05.986Z,35.60
2023-05-09T04:53:35.402Z,35.80
2023-05-09T04:56:04.659Z,35.90
2023-05-09T04:58:35.593Z,36.00
2023-05-09T05:01:04.962Z,36.10
2023-05-09T05:03:34.664Z,36.20
2023-05-09T05:06:03.889Z,36.20
2023-05-09T05:08:33.043Z,36.30
2023-05-09T05:11:02.471Z,36.40
2023-05-09T05:13:31.826Z,36.50
2023-05-09T05:16:01.068Z,36.60
2023-05-09T05:18:30.355Z,36.80
2023-05-09T05:20:59.501Z,36.80
2023-05-09T05:23:28.734Z,36.90
2023-05-09T05:25:57.972Z,37.00
2023-05-09T05:28:27.193Z,37.20
2023-05-09T05:30:56.478Z,37.30
2023-05-09T05:33:26.034Z,37.50
2023-05-09T05:35:55.209Z,37.60
2023-05-09T05:38:24.460Z,37.70
2023-05-09T05:40:53.799Z,37.90
2023-05-09T05:43:22.957Z,38.00
2023-05-09T05:45:52.138Z,38.10
2023-05-09T05:48:21.499Z,38.00
2023-05-09T05:50:50.706Z,38.10
2023-05-09T05:53:19.856Z,38.10
2023-05-09T05:55:50.230Z,38.20
2023-05-09T05:58:19.484Z,38.20
2023-05-09T06:00:48.694Z,38.20
2023-05-09T06:03:18.488Z,38.20
2023-05-09T06:05:49.483Z,38.20
2023-05-09T06:08:18.724Z,38.20
2023-05-09T06:10:47.868Z,38.20
2023-05-09T06:13:17.131Z,38.20
2023-05-09T06:15:46.566Z,38.20
2023-05-09T06:18:15.833Z,38.20
2023-05-09T06:20:45.051Z,38.20
2023-05-09T06:23:14.272Z,38.30
2023-05-09T06:25:43.477Z,38.40
2023-05-09T06:28:12.641Z,38.50
2023-05-09T06:30:41.992Z,38.60
2023-05-09T06:33:11.437Z,38.60
2023-05-09T06:35:40.674Z,38.70
2023-05-09T06:38:09.957Z,38.60
2023-05-09T06:40:39.540Z,38.60
2023-05-09T06:43:08.750Z,38.60
2023-05-09T06:45:38.137Z,38.60
2023-05-09T06:48:07.806Z,38.70
2023-05-09T06:50:36.989Z,38.60
2023-05-09T06:53:06.326Z,38.60
2023-05-09T06:55:35.630Z,38.60
2023-05-09T06:58:05.803Z,38.70
2023-05-09T07:00:35.228Z,38.70
2023-05-09T07:03:04.512Z,38.70
2023-05-09T07:05:33.756Z,38.80
2023-05-09T07:08:03.099Z,38.80
2023-05-09T07:10:32.532Z,38.90
2023-05-09T07:13:01.729Z,38.90
2023-05-09T07:15:40.306Z,38.90
2023-05-09T07:18:11.620Z,38.90
2023-05-09T07:20:41.205Z,38.90
2023-05-09T07:23:10.496Z,39.00
2023-05-09T07:25:39.822Z,39.00
2023-05-09T07:28:09.084Z,39.10
2023-05-09T07:30:38.272Z,39.10
2023-05-09T07:33:08.553Z,39.10
2023-05-09T07:35:37.835Z,39.20
2023-05-09T07:38:07.512Z,39.10
2023-05-09T07:40:38.137Z,39.10
2023-05-09T07:43:07.345Z,39.10
2023-05-09T07:45:37.385Z,39.00
2023-05-09T07:48:07.043Z,39.00
2023-05-09T07:50:36.360Z,39.00
2023-05-09T07:53:05.685Z,39.00
2023-05-09T07:55:34.830Z,39.10
2023-05-09T07:58:04.026Z,39.10
2023-05-09T08:00:33.293Z,39.00
2023-05-09T08:03:02.573Z,38.90
2023-05-09T08:05:31.945Z,38.90
2023-05-09T08:08:01.289Z,38.80
2023-05-09T08:10:32.079Z,38.80
2023-05-09T08:13:01.621Z,38.80
2023-05-09T08:15:32.259Z,38.80
2023-05-09T08:18:01.585Z,38.90
2023-05-09T08:20:32.870Z,38.90
2023-05-09T08:23:02.130Z,39.00
2023-05-09T08:25:31.354Z,38.90
2023-05-09T08:28:00.792Z,38.90
2023-05-09T08:30:30.617Z,38.90
2023-05-09T08:32:59.834Z,38.80
2023-05-09T08:35:29.094Z,38.70
2023-05-09T08:37:59.113Z,38.60
2023-05-09T08:40:28.330Z,38.70
2023-05-09T08:42:58.383Z,38.60
2023-05-09T08:45:31.624Z,38.60
2023-05-09T08:48:03.817Z,38.70
2023-05-09T08:50:33.739Z,38.80
2023-05-09T08:53:03.256Z,38.80
2023-05-09T08:55:34.089Z,38.80
2023-05-09T08:58:05.154Z,38.80
2023-05-09T09:00:35.892Z,38.80
2023-05-09T09:03:07.886Z,38.80
2023-05-09T09:05:42.743Z,38.80
2023-05-09T09:08:12.909Z,38.70
2023-05-09T09:10:47.993Z,38.60
2023-05-09T09:13:19.230Z,38.50
2023-05-09T09:15:50.220Z,38.20
2023-05-09T09:18:30.633Z,37.90
2023-05-09T09:21:08.687Z,37.60
2023-05-09T09:23:44.054Z,37.30
2023-05-09T09:26:16.234Z,37.10
2023-05-09T09:28:45.593Z,36.90
2023-05-09T09:31:26.584Z,36.70
2023-05-09T09:34:02.761Z,36.50
2023-05-09T09:36:37.678Z,36.30
2023-05-09T09:39:07.777Z,36.10
2023-05-09T09:41:41.536Z,36.00
2023-05-09T09:44:22.537Z,35.90
2023-05-09T09:46:57.430Z,35.70
2023-05-09T09:49:28.325Z,35.60
2023-05-09T09:51:59.842Z,35.60
2023-05-09T09:54:30.246Z,35.60
2023-05-09T09:56:59.759Z,35.50
2023-05-09T09:59:29.303Z,35.50
2023-05-09T10:02:08.525Z,35.50
2023-05-09T10:04:44.330Z,35.60
2023-05-09T10:07:15.101Z,35.50
2023-05-09T10:09:44.807Z,35.50
2023-05-09T10:12:16.437Z,35.50
2023-05-09T10:14:47.052Z,35.40
2023-05-09T10:17:17.491Z,35.40
2023-05-09T10:19:48.854Z,35.30
2023-05-09T10:22:20.773Z,35.30
2023-05-09T10:25:04.581Z,35.30
2023-05-09T10:27:38.033Z,35.30
2023-05-09T10:30:23.589Z,35.20
2023-05-09T10:33:12.071Z,35.20
2023-05-09T10:35:48.742Z,35.10
2023-05-09T10:38:19.469Z,35.00
2023-05-09T10:40:49.782Z,34.90
2023-05-09T10:43:19.495Z,34.90
2023-05-09T10:45:49.622Z,34.80
2023-05-09T10:48:19.693Z,34.70
2023-05-09T10:50:50.060Z,34.70
2023-05-09T10:53:19.350Z,34.70
2023-05-09T10:56:03.992Z,34.60
2023-05-09T10:58:38.336Z,34.60
2023-05-09T11:01:08.005Z,34.50
2023-05-09T11:03:59.319Z,34.50
2023-05-09T11:06:45.287Z,34.50
2023-05-09T11:09:43.798Z,34.40
2023-05-09T11:12:16.530Z,34.30
2023-05-09T11:14:52.688Z,34.30
2023-05-09T11:17:25.675Z,34.20
2023-05-09T11:19:54.987Z,34.20
2023-05-09T11:22:33.675Z,34.10
2023-05-09T11:25:13.803Z,34.10
2023-05-09T11:27:44.768Z,34.00
2023-05-09T11:30:20.852Z,34.00
2023-05-09T11:32:56.472Z,34.00
2023-05-09T11:35:29.957Z,33.90
2023-05-09T11:38:08.814Z,33.80
2023-05-09T11:40:39.495Z,33.80
2023-05-09T11:43:10.490Z,33.70
2023-05-09T11:45:42.422Z,33.70
2023-05-09T11:48:12.005Z,33.60
2023-05-09T11:50:42.739Z,33.50
2023-05-09T11:53:14.234Z,33.50
2023-05-09T11:55:43.815Z,33.50
2023-05-09T11:58:14.914Z,33.40
2023-05-09T12:00:48.573Z,33.40
2023-05-09T12:03:18.493Z,33.30
2023-05-09T12:05:50.674Z,33.30
2023-05-09T12:08:23.892Z,33.20
2023-05-09T12:10:54.787Z,33.10
2023-05-09T12:13:24.195Z,33.10
2023-05-09T12:16:01.573Z,33.10
2023-05-09T12:18:30.949Z,33.00
2023-05-09T12:21:01.265Z,33.00
2023-05-09T12:23:35.906Z,32.90
2023-05-09T12:26:07.722Z,32.80
2023-05-09T12:28:40.166Z,32.80
2023-05-09T12:31:10.247Z,32.70
2023-05-09T12:33:41.416Z,32.70
2023-05-09T12:36:20.632Z,32.70
2023-05-09T12:38:58.170Z,32.50
2023-05-09T12:41:36.959Z,32.50
2023-05-09T12:44:10.684Z,32.40
2023-05-09T12:46:40.184Z,32.30
2023-05-09T12:49:23.637Z,32.10
2023-05-09T12:51:54.773Z,32.00
2023-05-09T12:54:30.826Z,31.80
2023-05-09T12:57:03.817Z,31.60
2023-05-09T12:59:34.908Z,31.50
2023-05-09T13:02:04.596Z,31.30
2023-05-09T13:04:34.123Z,31.10
2023-05-09T13:07:10.861Z,31.00
2023-05-09T13:10:02.012Z,30.80
2023-05-09T13:12:31.420Z,30.70
2023-05-09T13:15:01.769Z,30.50
2023-05-09T13:17:32.148Z,30.30
2023-05-09T13:20:02.230Z,30.20
2023-05-09T13:22:34.142Z,30.10
2023-05-09T13:25:03.565Z,30.00
2023-05-09T13:27:33.913Z,29.90
2023-05-09T13:30:03.424Z,29.70
2023-05-09T13:32:32.839Z,29.60
2023-05-09T13:35:02.156Z,29.40
2023-05-09T13:37:32.189Z,29.30
2023-05-09T13:40:01.487Z,29.30
2023-05-09T13:42:30.942Z,29.10
2023-05-09T13:45:00.443Z,28.90
2023-05-09T13:47:32.802Z,28.80
2023-05-09T13:50:02.294Z,28.60
2023-05-09T13:52:31.931Z,28.40
2023-05-09T13:55:02.268Z,28.40
2023-05-09T13:57:31.580Z,28.40
2023-05-09T14:05:27.934Z,28.20
2023-05-09T14:10:40.663Z,28.10
2023-05-09T14:13:10.343Z,28.00
2023-05-09T14:15:41.370Z,28.00
2023-05-09T14:18:11.842Z,28.00
2023-05-09T14:20:43.339Z,27.90
2023-05-09T14:23:26.393Z,27.90
2023-05-09T14:26:02.291Z,27.80
2023-05-09T14:31:20.139Z,27.50
2023-05-09T14:33:49.641Z,27.40
2023-05-09T14:36:20.356Z,27.20
2023-05-09T14:38:50.958Z,27.10
2023-05-09T14:41:22.638Z,27.10
2023-05-09T14:43:57.626Z,27.00
2023-05-09T14:46:33.842Z,27.00
2023-05-09T14:49:05.422Z,26.90
2023-05-09T14:51:35.225Z,26.90
2023-05-09T14:54:05.951Z,26.90
2023-05-09T14:56:41.243Z,26.80
2023-05-09T14:59:20.566Z,26.80
2023-05-09T15:01:57.333Z,26.70
2023-05-09T15:07:23.904Z,26.60
2023-05-09T15:12:42.249Z,26.50
2023-05-09T15:18:14.830Z,26.50
2023-05-09T15:20:44.839Z,26.40
2023-05-09T15:23:14.918Z,26.40
2023-05-09T15:25:45.633Z,26.40
2023-05-09T15:28:15.114Z,26.40
2023-05-09T15:30:47.808Z,26.50
2023-05-09T15:33:17.129Z,26.50
2023-05-09T15:35:52.276Z,26.50
2023-05-09T15:38:34.090Z,26.50
2023-05-09T15:41:06.395Z,26.60
2023-05-09T15:43:40.005Z,26.60
2023-05-09T15:46:14.850Z,26.70
2023-05-09T15:48:47.118Z,26.60
2023-05-09T15:51:16.565Z,26.60
2023-05-09T15:53:46.000Z,26.60
2023-05-09T15:56:15.619Z,26.60
2023-05-09T15:59:06.746Z,26.50
2023-05-09T16:01:37.219Z,26.50
2023-05-09T16:04:08.937Z,26.50
2023-05-09T16:06:38.966Z,26.60
2023-05-09T16:09:08.548Z,26.60
2023-05-09T16:11:38.242Z,26.70
2023-05-09T16:14:10.379Z,26.70
2023-05-09T16:16:47.076Z,26.70
2023-05-09T16:19:16.392Z,26.70
2023-05-09T16:21:48.598Z,26.80
2023-05-09T16:24:17.936Z,26.80
2023-05-09T16:26:47.116Z,26.80
2023-05-09T16:29:16.313Z,26.70
2023-05-09T16:31:45.910Z,26.70
2023-05-09T16:34:15.092Z,26.60
2023-05-09T16:36:45.683Z,26.60
2023-05-09T16:39:15.132Z,26.50
2023-05-09T16:41:44.501Z,26.50
2023-05-09T16:44:13.986Z,26.50
2023-05-09T16:46:43.509Z,26.50
2023-05-09T16:49:16.475Z,26.50
2023-05-09T16:51:46.709Z,26.50
2023-05-09T16:54:16.172Z,26.50
2023-05-09T16:56:45.478Z,26.40
2023-05-09T16:59:14.846Z,26.40
2023-05-09T17:01:44.340Z,26.40
2023-05-09T17:04:13.739Z,26.40
2023-05-09T17:06:43.102Z,26.30
2023-05-09T17:09:12.587Z,26.40
2023-05-09T17:11:41.991Z,26.40
2023-05-09T17:14:11.428Z,26.40
2023-05-09T17:16:40.742Z,26.40
2023-05-09T17:19:10.058Z,26.40
2023-05-09T17:21:42.528Z,26.40
2023-05-09T17:24:12.129Z,26.30
2023-05-09T17:26:42.064Z,26.30
2023-05-09T17:29:11.436Z,26.30
2023-05-09T17:31:40.908Z,26.30
2023-05-09T17:34:10.198Z,26.20
2023-05-09T17:36:39.496Z,26.30
2023-05-09T17:39:08.841Z,26.20
2023-05-09T17:41:38.100Z,26.20
2023-05-09T17:44:07.594Z,26.20
2023-05-09T17:46:37.013Z,26.20
2023-05-09T17:49:08.713Z,26.30
2023-05-09T17:51:38.253Z,26.30
2023-05-09T17:54:07.792Z,26.30
2023-05-09T17:56:37.432Z,26.30
2023-05-09T17:59:07.564Z,26.30
2023-05-09T18:01:37.009Z,26.30
2023-05-09T18:04:07.413Z,26.20
2023-05-09T18:06:38.139Z,26.20
2023-05-09T18:09:08.038Z,26.20
2023-05-09T18:11:37.560Z,26.20
2023-05-09T18:14:07.396Z,26.20
2023-05-09T18:16:37.273Z,26.20
2023-05-09T18:19:06.925Z,26.20
2023-05-09T18:21:37.492Z,26.20
2023-05-09T18:24:10.080Z,26.20
2023-05-09T18:26:39.359Z,26.20
2023-05-09T18:29:08.909Z,26.20
2023-05-09T18:31:40.469Z,26.30
2023-05-09T18:34:10.319Z,26.30
2023-05-09T18:36:39.702Z,26.30
2023-05-09T18:39:10.182Z,26.30
2023-05-09T18:41:39.538Z,26.30
2023-05-09T18:44:09.575Z,26.30
2023-05-09T18:46:39.068Z,26.30
2023-05-09T18:49:08.860Z,26.30
2023-05-09T18:51:38.135Z,26.20
2023-05-09T18:54:13.443Z,26.20
2023-05-09T18:56:49.798Z,26.20
2023-05-09T18:59:19.171Z,26.20
2023-05-09T19:01:48.467Z,26.20
2023-05-09T19:04:21.121Z,26.20
2023-05-09T19:06:51.699Z,26.20
2023-05-09T19:09:20.991Z,26.20
2023-05-09T19:11:50.260Z,26.30
2023-05-09T19:14:19.476Z,26.20
2023-05-09T19:16:48.798Z,26.20
2023-05-09T19:19:18.067Z,26.20
2023-05-09T19:21:49.124Z,26.20
2023-05-09T19:24:24.364Z,26.20
2023-05-09T19:26:53.632Z,26.20
2023-05-09T19:29:22.783Z,26.20
2023-05-09T19:31:52.198Z,26.20
2023-05-09T19:34:22.096Z,26.10
2023-05-09T19:36:51.720Z,26.10
2023-05-09T19:39:21.100Z,26.10
2023-05-09T19:41:51.191Z,26.10
2023-05-09T19:44:20.522Z,26.00
2023-05-09T19:46:50.483Z,26.00
2023-05-09T19:49:19.915Z,26.00
2023-05-09T19:51:49.284Z,25.90
2023-05-09T19:54:18.747Z,25.90
2023-05-09T19:56:48.298Z,25.90
2023-05-09T19:59:19.605Z,25.80
2023-05-09T20:01:49.103Z,25.80
2023-05-09T20:04:22.645Z,25.80
2023-05-09T20:06:52.740Z,25.70
2023-05-09T20:09:22.292Z,25.80
2023-05-09T20:11:51.650Z,25.70
2023-05-09T20:14:20.942Z,25.60
2023-05-09T20:16:50.392Z,25.60
2023-05-09T20:19:30.674Z,25.60
2023-05-09T20:22:00.607Z,25.60
2023-05-09T20:24:32.379Z,25.60
2023-05-09T20:27:03.492Z,25.60
2023-05-09T20:29:32.772Z,25.60
2023-05-09T20:32:03.144Z,25.60
2023-05-09T20:34:32.569Z,25.60
2023-05-09T20:37:02.509Z,25.50
2023-05-09T20:39:31.895Z,25.50
2023-05-09T20:42:03.230Z,25.50
2023-05-09T20:44:32.597Z,25.50
2023-05-09T20:47:18.458Z,25.50
2023-05-09T20:49:47.809Z,25.50
2023-05-09T20:52:17.142Z,25.50
2023-05-09T20:54:49.087Z,25.60
2023-05-09T20:57:21.105Z,25.60
2023-05-09T20:59:50.424Z,25.60
2023-05-09T21:02:19.761Z,25.60
2023-05-09T21:04:49.039Z,25.60
2023-05-09T21:07:21.021Z,25.60
2023-05-09T21:09:54.701Z,25.60
2023-05-09T21:15:17.598Z,25.60
2023-05-09T21:17:48.413Z,25.50
2023-05-09T21:20:18.074Z,25.60
2023-05-09T21:22:47.631Z,25.60
2023-05-09T21:25:18.494Z,25.50
2023-05-09T21:27:47.822Z,25.50
2023-05-09T21:30:17.503Z,25.50
2023-05-09T21:32:46.989Z,25.50
2023-05-09T21:35:16.615Z,25.50
2023-05-09T21:37:47.048Z,25.50
2023-05-09T21:40:16.728Z,25.50
2023-05-09T21:42:46.290Z,25.50
2023-05-09T21:45:15.927Z,25.60
2023-05-09T21:47:45.464Z,25.60
2023-05-09T21:50:15.080Z,25.60
2023-05-09T21:52:44.581Z,25.60
2023-05-09T21:55:14.201Z,25.60
2023-05-09T21:57:43.651Z,25.60
2023-05-09T22:00:16.279Z,25.60
2023-05-09T22:02:46.317Z,25.60
2023-05-09T22:05:15.883Z,25.60
2023-05-09T22:07:45.397Z,25.60
2023-05-09T22:10:14.934Z,25.60
2023-05-09T22:12:44.535Z,25.60
2023-05-09T22:15:14.128Z,25.50
2023-05-09T22:17:43.512Z,25.50
2023-05-09T22:20:13.901Z,25.60
2023-05-09T22:22:43.506Z,25.60
2023-05-09T22:25:13.008Z,25.60
2023-05-09T22:27:42.240Z,25.60
2023-05-09T22:30:13.559Z,25.60
2023-05-09T22:32:43.455Z,25.60
2023-05-09T22:35:12.911Z,25.60
2023-05-09T22:37:45.351Z,25.60
2023-05-09T22:40:15.784Z,25.60
2023-05-09T22:42:45.337Z,25.60
2023-05-09T22:45:14.890Z,25.70
2023-05-09T22:47:44.388Z,25.70
2023-05-09T22:50:14.727Z,25.70
2023-05-09T22:52:44.389Z,25.70
2023-05-09T22:55:13.837Z,25.80
2023-05-09T22:57:43.488Z,25.80
2023-05-09T23:00:13.964Z,25.80
2023-05-09T23:02:43.592Z,25.80
2023-05-09T23:05:13.058Z,25.80
2023-05-09T23:07:42.617Z,25.80
2023-05-09T23:10:12.464Z,25.80
2023-05-09T23:12:41.797Z,25.80
2023-05-09T23:15:12.371Z,25.80
2023-05-09T23:17:42.513Z,25.80
2023-05-09T23:20:12.709Z,25.80
2023-05-09T23:22:42.046Z,25.90
2023-05-09T23:25:11.789Z,25.90
2023-05-09T23:27:41.752Z,25.90
2023-05-09T23:30:12.442Z,25.90
2023-05-09T23:32:43.172Z,25.90
2023-05-09T23:35:12.872Z,25.90
2023-05-09T23:37:43.866Z,25.90
2023-05-09T23:40:14.242Z,26.00
2023-05-09T23:42:43.839Z,25.90
2023-05-09T23:45:13.755Z,25.90
2023-05-09T23:47:43.050Z,26.00
2023-05-09T23:50:13.454Z,26.00
2023-05-09T23:52:44.496Z,26.00
2023-05-09T23:55:14.136Z,26.00
2023-05-09T23:57:43.502Z,26.00
